Friday, April 20, 2018, 6:39 AM EDT
Back to Local

K40B, Clayton Lake

Location: Ashland, ME, United States Lat: 46.617
Local Time: 6:39 AM EDT (10:39 GMT) Lon: -69.533
Time Zone: US/Eastern Elev: 1030 ft

Show me the last for .
Show Decoded

2018-04-20 06:16 METAR K40B 201016Z AUTO VRB02KT M01/M01 A2980 RMK AO1 SLP108 T10051011 53022 =
2018-04-20 05:16 METAR K40B 200916Z AUTO VRB03KT M01/M01 A2976 RMK AO1 SLP097 T10061011 53013
                 60001 =
2018-04-20 04:16 METAR K40B 200816Z AUTO 00000KT M01/M01 A2974 RMK AO1 SLP089 T10061008 53008 =
2018-04-20 03:16 METAR K40B 200716Z AUTO VRB04KT 00/00 A2973 RMK AO1 SLP083 T10041005 52004 P0001
                 =
2018-04-20 02:16 METAR K40B 200616Z AUTO 00000KT 00/00 A2972 RMK AO1 SLP080 T00000001 10020 20000
                 52003 P0001 60001 =
2018-04-20 01:16 METAR K40B 200516Z AUTO 00000KT 00/M01 A2972 RMK AO1 SLP079 T00041013 400600002
                 52002 =
2018-04-20 00:16 METAR K40B 200416Z AUTO 00000KT 01/M01 A2972 RMK AO1 SLP077 T00071014 54001 =
2018-04-19 23:16 METAR K40B 200316Z AUTO VRB03KT 01/M01 A2971 RMK AO1 SLP075 T00101010 50003 =
2018-04-19 22:16 METAR K40B 200216Z AUTO VRB03KT 01/M01 A2971 RMK AO1 SLP075 T00121007 51010 =
2018-04-19 21:16 METAR K40B 200116Z AUTO 00000KT 01/M01 A2972 RMK AO1 SLP077 T00091014 52016 =
2018-04-19 20:16 METAR K40B 200016Z AUTO 00000KT 02/M02 A2970 RMK AO1 SLP071 T00201017 10060
                 20015 52015 =
2018-04-19 19:16 METAR K40B 192316Z AUTO 00000KT 02/M02 A2968 RMK AO1 SLP065 T00231020 52015 =
2018-04-19 18:16 METAR K40B 192216Z AUTO VRB03KT 03/M03 A2967 RMK AO1 SLP060 T00341025 52014 =
2018-04-19 17:16 METAR K40B 192116Z AUTO 00000KT 04/M03 A2966 RMK AO1 SLP056 T00441033 53011 =
2018-04-19 16:16 METAR K40B 192016Z AUTO VRB02KT 05/M05 A2964 RMK AO1 SLP050 T00531054 53007 =
2018-04-19 15:16 METAR K40B 191916Z AUTO VRB04KT 05/M06 A2963 RMK AO1 SLP047 T00551056 52005 =
2018-04-19 14:16 METAR K40B 191816Z AUTO VRB03KT 05/M05 A2962 RMK AO1 SLP047 T00531049 10059
                 20019 51004 =
2018-04-19 13:16 METAR K40B 191716Z AUTO VRB04KT 05/M05 A2962 RMK AO1 SLP045 T00501052 50003 =
2018-04-19 12:16 METAR K40B 191616Z AUTO VRB04KT 05/M05 A2961 RMK AO1 SLP043 T00471050 50003 =
2018-04-19 11:16 METAR K40B 191516Z AUTO VRB04G12KT 05/M05 A2961 RMK AO1 SLP044 T00461049 52004 =
2018-04-19 10:16 METAR K40B 191416Z AUTO VRB03KT 04/M04 A2961 RMK AO1 SLP042 T00381039 51006 =
2018-04-19 09:16 METAR K40B 191316Z AUTO VRB02G12KT 04/M02 A2960 RMK AO1 SLP041 T00361023 51014 =
2018-04-19 08:16 METAR K40B 191216Z AUTO VRB05G11KT 02/M03 A2960 RMK AO1 SLP041 T00191028 10022
                 20002 51024 60001 70001 =
2018-04-19 07:16 METAR K40B 191116Z AUTO 00000KT 01/M01 A2959 RMK AO1 SLP035 T00111007 53020 =

Support USWX by starting your Amazon purchase here.